createdAt,value
2018-01-24T00:01:33.404Z,3.90
2018-01-24T00:04:01.660Z,3.90
2018-01-24T00:06:29.178Z,3.90
2018-01-24T00:08:56.673Z,3.90
2018-01-24T00:11:24.172Z,3.90
2018-01-24T00:13:51.680Z,3.90
2018-01-24T00:16:19.164Z,3.90
2018-01-24T00:18:46.674Z,3.80
2018-01-24T00:21:14.185Z,3.80
2018-01-24T00:23:41.686Z,3.80
2018-01-24T00:26:09.177Z,3.80
2018-01-24T00:28:36.693Z,3.80
2018-01-24T00:31:04.187Z,3.80
2018-01-24T00:33:31.697Z,3.80
2018-01-24T00:35:59.961Z,3.80
2018-01-24T00:38:28.242Z,3.80
2018-01-24T00:40:56.498Z,3.80
2018-01-24T00:43:24.014Z,3.80
2018-01-24T00:45:51.501Z,3.80
2018-01-24T00:48:19.005Z,3.80
2018-01-24T00:50:47.265Z,3.80
2018-01-24T00:53:14.765Z,3.80
2018-01-24T00:55:42.257Z,3.80
2018-01-24T00:58:09.765Z,3.90
2018-01-24T01:00:37.258Z,3.90
2018-01-24T01:03:04.774Z,3.90
2018-01-24T01:05:33.049Z,3.90
2018-01-24T01:08:00.582Z,3.90
2018-01-24T01:10:28.072Z,4.00
2018-01-24T01:12:56.346Z,4.00
2018-01-24T01:15:24.625Z,4.00
2018-01-24T01:17:52.881Z,4.10
2018-01-24T01:20:20.403Z,4.10
2018-01-24T01:22:47.938Z,4.10
2018-01-24T01:25:15.449Z,4.10
2018-01-24T01:27:42.941Z,4.10
2018-01-24T01:30:10.460Z,4.20
2018-01-24T01:32:37.957Z,4.20
2018-01-24T01:35:06.230Z,4.20
2018-01-24T01:37:34.487Z,4.30
2018-01-24T01:40:02.005Z,4.20
2018-01-24T01:42:29.494Z,4.30
2018-01-24T01:44:57.002Z,4.30
2018-01-24T01:47:24.503Z,4.30
2018-01-24T01:49:52.005Z,4.40
2018-01-24T01:52:20.266Z,4.40
2018-01-24T01:54:48.549Z,4.40
2018-01-24T01:57:16.817Z,4.40
2018-01-24T01:59:45.140Z,4.50
2018-01-24T02:02:12.635Z,4.50
2018-01-24T02:04:40.136Z,4.50
2018-01-24T02:07:07.621Z,4.50
2018-01-24T02:09:35.130Z,4.50
2018-01-24T02:12:03.422Z,4.60
2018-01-24T02:14:31.698Z,4.60
2018-01-24T02:16:59.965Z,4.60
2018-01-24T02:19:28.296Z,4.70
2018-01-24T02:21:56.513Z,4.70
2018-01-24T02:24:24.793Z,4.70
2018-01-24T02:26:53.050Z,4.80
2018-01-24T02:29:20.570Z,4.80
2018-01-24T02:31:48.061Z,4.80
2018-01-24T02:34:15.567Z,4.80
2018-01-24T02:36:43.058Z,4.90
2018-01-24T02:39:15.453Z,4.90
2018-01-24T02:41:42.951Z,5.00
2018-01-24T02:44:11.253Z,5.00
2018-01-24T02:46:38.745Z,5.00
2018-01-24T02:49:06.276Z,5.10
2018-01-24T02:51:33.765Z,5.10
2018-01-24T02:54:02.045Z,5.20
2018-01-24T02:56:29.532Z,5.20
2018-01-24T02:58:57.793Z,5.30
2018-01-24T03:01:25.297Z,5.30
2018-01-24T03:03:52.789Z,5.30
2018-01-24T03:06:20.289Z,5.30
2018-01-24T03:08:48.546Z,5.40
2018-01-24T03:11:16.841Z,5.40
2018-01-24T03:13:45.097Z,5.40
2018-01-24T03:16:12.610Z,5.40
2018-01-24T03:18:40.101Z,5.40
2018-01-24T03:21:07.641Z,5.50
2018-01-24T03:23:35.133Z,5.50
2018-01-24T03:26:02.641Z,5.50
2018-01-24T03:28:30.129Z,5.50
2018-01-24T03:30:57.644Z,5.60
2018-01-24T03:33:25.141Z,5.60
2018-01-24T03:35:52.641Z,5.60
2018-01-24T03:38:20.897Z,5.70
2018-01-24T03:40:48.406Z,5.60
2018-01-24T03:43:15.901Z,5.70
2018-01-24T03:45:43.411Z,5.70
2018-01-24T03:48:10.913Z,5.70
2018-01-24T03:50:38.418Z,5.80
2018-01-24T03:53:06.681Z,5.80
2018-01-24T03:55:34.957Z,5.90
2018-01-24T03:58:03.222Z,5.90
2018-01-24T04:00:30.753Z,5.90
2018-01-24T04:02:58.252Z,5.90
2018-01-24T04:05:26.538Z,6.00
2018-01-24T04:07:54.793Z,6.00
2018-01-24T04:10:22.329Z,6.00
2018-01-24T04:12:49.821Z,6.00
2018-01-24T04:15:17.337Z,6.10
2018-01-24T04:17:44.824Z,6.10
2018-01-24T04:20:12.338Z,6.10
2018-01-24T04:22:39.830Z,6.20
2018-01-24T04:25:07.349Z,6.20
2018-01-24T04:27:34.841Z,6.20
2018-01-24T04:30:02.362Z,6.20
2018-01-24T04:32:29.854Z,6.20
2018-01-24T04:34:57.371Z,6.20
2018-01-24T04:37:25.629Z,6.30
2018-01-24T04:39:53.905Z,6.30
2018-01-24T04:42:21.406Z,6.30
2018-01-24T04:44:48.920Z,6.30
2018-01-24T04:47:16.413Z,6.30
2018-01-24T04:49:43.916Z,6.30
2018-01-24T04:52:11.422Z,6.40
2018-01-24T04:54:38.937Z,6.30
2018-01-24T04:57:06.440Z,6.30
2018-01-24T04:59:34.699Z,6.30
2018-01-24T05:02:02.987Z,6.30
2018-01-24T05:04:31.249Z,6.30
2018-01-24T05:06:59.528Z,6.30
2018-01-24T05:09:27.790Z,6.30
2018-01-24T05:11:55.289Z,6.30
2018-01-24T05:14:22.794Z,6.30
2018-01-24T05:16:51.834Z,6.30
2018-01-24T05:19:19.350Z,6.30
2018-01-24T05:21:47.798Z,6.30
2018-01-24T05:24:15.292Z,6.30
2018-01-24T05:26:42.797Z,6.30
2018-01-24T05:29:10.281Z,6.30
2018-01-24T05:31:37.797Z,6.30
2018-01-24T05:34:06.053Z,6.30
2018-01-24T05:36:33.561Z,6.30
2018-01-24T05:39:01.059Z,6.30
2018-01-24T05:41:29.554Z,6.30
2018-01-24T05:43:57.051Z,6.30
2018-01-24T05:46:24.561Z,6.30
2018-01-24T05:48:52.105Z,6.40
2018-01-24T05:51:19.577Z,6.40
2018-01-24T05:53:47.067Z,6.40
2018-01-24T05:56:15.345Z,6.40
2018-01-24T05:58:43.597Z,6.40
2018-01-24T06:01:11.107Z,6.40
2018-01-24T06:03:38.602Z,6.40
2018-01-24T06:06:06.110Z,6.40
2018-01-24T06:08:33.597Z,6.40
2018-01-24T06:11:01.130Z,6.40
2018-01-24T06:13:28.619Z,6.40
2018-01-24T06:15:56.897Z,6.40
2018-01-24T06:18:24.437Z,6.40
2018-01-24T06:20:52.706Z,6.40
2018-01-24T06:23:20.211Z,6.40
2018-01-24T06:25:47.726Z,6.40
2018-01-24T06:28:15.217Z,6.40
2018-01-24T06:30:43.498Z,6.40
2018-01-24T06:33:11.002Z,6.40
2018-01-24T06:35:38.510Z,6.40
2018-01-24T06:38:06.018Z,6.40
2018-01-24T06:40:33.529Z,6.40
2018-01-24T06:43:01.127Z,6.30
2018-01-24T06:45:28.625Z,6.40
2018-01-24T06:47:56.917Z,6.30
2018-01-24T06:50:24.463Z,6.30
2018-01-24T06:52:51.980Z,6.30
2018-01-24T06:55:19.486Z,6.30
2018-01-24T06:57:46.997Z,6.30
2018-01-24T07:00:14.494Z,6.30
2018-01-24T07:02:42.761Z,6.30
2018-01-24T07:05:11.024Z,6.30
2018-01-24T07:07:38.534Z,6.30
2018-01-24T07:10:06.034Z,6.20
2018-01-24T07:12:45.473Z,6.20
2018-01-24T07:15:12.973Z,6.20
2018-01-24T07:17:40.485Z,6.20
2018-01-24T07:20:07.981Z,6.20
2018-01-24T07:22:36.254Z,6.20
2018-01-24T07:25:03.762Z,6.20
2018-01-24T07:27:31.274Z,6.20
2018-01-24T07:29:59.525Z,6.20
2018-01-24T07:32:27.037Z,6.20
2018-01-24T07:34:54.534Z,6.20
2018-01-24T07:37:22.053Z,6.10
2018-01-24T07:39:50.307Z,6.10
2018-01-24T07:42:18.578Z,6.10
2018-01-24T07:44:46.828Z,6.10
2018-01-24T07:47:14.333Z,6.10
2018-01-24T07:49:41.828Z,6.10
2018-01-24T07:52:09.329Z,6.20
2018-01-24T07:54:37.591Z,6.20
2018-01-24T07:57:05.093Z,6.20
2018-01-24T07:59:32.605Z,6.20
2018-01-24T08:02:00.113Z,6.20
2018-01-24T08:04:27.606Z,6.30
2018-01-24T08:06:55.117Z,6.30
2018-01-24T08:09:22.621Z,6.30
2018-01-24T08:11:50.138Z,6.40
2018-01-24T08:14:17.621Z,6.40
2018-01-24T08:16:45.128Z,6.40
2018-01-24T08:19:13.381Z,6.50
2018-01-24T08:21:40.891Z,6.50
2018-01-24T08:24:08.373Z,6.50
2018-01-24T08:26:35.878Z,6.50
2018-01-24T08:29:04.129Z,6.60
2018-01-24T08:31:31.647Z,6.60
2018-01-24T08:33:59.176Z,6.60
2018-01-24T08:36:27.449Z,6.60
2018-01-24T08:38:55.701Z,6.70
2018-01-24T08:41:23.210Z,6.70
2018-01-24T08:43:50.765Z,6.70
2018-01-24T08:46:18.245Z,6.80
2018-01-24T08:48:45.733Z,6.80
2018-01-24T08:51:13.242Z,6.90
2018-01-24T08:53:40.746Z,6.90
2018-01-24T08:56:08.238Z,7.00
2018-01-24T08:58:36.513Z,7.10
2018-01-24T09:01:22.452Z,7.20
2018-01-24T09:04:07.574Z,7.20
2018-01-24T09:06:52.645Z,7.20
2018-01-24T09:09:38.596Z,7.40
2018-01-24T09:12:23.722Z,7.30
2018-01-24T09:15:09.615Z,7.50
2018-01-24T09:17:54.886Z,7.50
2018-01-24T09:20:40.981Z,7.60
2018-01-24T09:23:12.918Z,7.70
2018-01-24T09:25:40.406Z,7.70
2018-01-24T09:28:07.934Z,7.80
2018-01-24T09:30:35.426Z,7.90
2018-01-24T09:33:02.938Z,8.00
2018-01-24T09:35:30.483Z,8.10
2018-01-24T09:37:57.957Z,8.20
2018-01-24T09:40:25.451Z,8.20
2018-01-24T09:42:52.997Z,8.30
2018-01-24T09:45:20.480Z,8.40
2018-01-24T09:47:47.978Z,8.60
2018-01-24T09:50:15.493Z,8.70
2018-01-24T09:52:42.994Z,8.70
2018-01-24T09:55:10.498Z,8.80
2018-01-24T09:57:38.761Z,9.00
2018-01-24T10:00:06.286Z,9.00
2018-01-24T10:02:33.782Z,9.10
2018-01-24T10:05:01.299Z,9.10
2018-01-24T10:07:28.785Z,9.20
2018-01-24T10:09:56.407Z,9.30
2018-01-24T10:12:23.910Z,9.40
2018-01-24T10:14:51.425Z,9.50
2018-01-24T10:17:18.933Z,9.60
2018-01-24T10:19:46.494Z,9.70
2018-01-24T10:22:13.980Z,9.70
2018-01-24T10:24:42.266Z,9.90
2018-01-24T10:27:09.761Z,9.90
2018-01-24T10:29:37.270Z,9.90
2018-01-24T10:32:04.786Z,10.00
2018-01-24T10:34:32.301Z,10.00
2018-01-24T10:36:59.794Z,10.10
2018-01-24T10:39:27.306Z,10.20
2018-01-24T10:41:55.572Z,10.30
2018-01-24T10:44:23.842Z,10.30
2018-01-24T10:46:52.137Z,10.40
2018-01-24T10:49:20.393Z,10.50
2018-01-24T10:51:47.913Z,10.40
2018-01-24T10:54:16.272Z,10.50
2018-01-24T10:56:43.789Z,10.60
2018-01-24T10:59:11.290Z,10.70
2018-01-24T11:01:38.801Z,10.70
2018-01-24T11:04:06.318Z,10.80
2018-01-24T11:06:33.842Z,10.80
2018-01-24T11:09:02.118Z,11.00
2018-01-24T11:11:29.781Z,11.00
2018-01-24T11:13:57.401Z,11.00
2018-01-24T11:16:24.918Z,11.00
2018-01-24T11:18:52.424Z,11.10
2018-01-24T11:21:19.941Z,11.20
2018-01-24T11:23:47.442Z,11.20
2018-01-24T11:26:14.958Z,11.20
2018-01-24T11:28:42.449Z,11.30
2018-01-24T11:31:09.956Z,11.40
2018-01-24T11:33:38.234Z,11.50
2018-01-24T11:36:06.551Z,11.50
2018-01-24T11:38:34.081Z,11.50
2018-01-24T11:41:02.389Z,11.60
2018-01-24T11:43:29.894Z,11.60
2018-01-24T11:45:58.202Z,11.80
2018-01-24T11:48:25.713Z,11.80
2018-01-24T11:50:53.246Z,11.90
2018-01-24T11:53:20.746Z,12.00
2018-01-24T11:55:49.029Z,12.10
2018-01-24T11:58:17.344Z,12.10
2018-01-24T12:00:44.854Z,12.10
2018-01-24T12:03:12.349Z,12.10
2018-01-24T12:05:39.936Z,12.20
2018-01-24T12:08:07.449Z,12.40
2018-01-24T12:10:35.718Z,12.50
2018-01-24T12:13:04.003Z,12.60
2018-01-24T12:15:32.273Z,12.60
2018-01-24T12:17:59.809Z,12.60
2018-01-24T12:20:27.318Z,12.70
2018-01-24T12:22:54.854Z,12.70
2018-01-24T12:25:22.354Z,12.70
2018-01-24T12:27:49.877Z,12.70
2018-01-24T12:30:17.378Z,12.80
2018-01-24T12:32:44.897Z,12.90
2018-01-24T12:35:13.225Z,12.90
2018-01-24T12:37:40.720Z,13.00
2018-01-24T12:40:08.230Z,13.00
2018-01-24T12:42:35.728Z,13.10
2018-01-24T12:45:03.269Z,13.10
2018-01-24T12:47:30.761Z,13.20
2018-01-24T12:49:59.053Z,13.30
2018-01-24T12:52:27.317Z,13.30
2018-01-24T12:54:55.594Z,13.40
2018-01-24T12:57:23.900Z,13.50
2018-01-24T12:59:51.502Z,13.40
2018-01-24T13:02:18.997Z,13.50
2018-01-24T13:04:47.278Z,13.60
2018-01-24T13:07:15.533Z,13.60
2018-01-24T13:09:43.042Z,13.60
2018-01-24T13:12:10.533Z,13.70
2018-01-24T13:14:38.048Z,13.70
2018-01-24T13:17:05.550Z,13.80
2018-01-24T13:19:33.101Z,13.80
2018-01-24T13:22:00.601Z,13.90
2018-01-24T13:24:28.914Z,13.90
2018-01-24T13:26:56.424Z,13.90
2018-01-24T13:29:23.935Z,14.00
2018-01-24T13:31:51.429Z,14.00
2018-01-24T13:34:18.973Z,14.00
2018-01-24T13:36:46.480Z,14.10
2018-01-24T13:39:14.778Z,14.10
2018-01-24T13:41:42.269Z,14.10
2018-01-24T13:44:09.784Z,14.20
2018-01-24T13:46:38.045Z,14.20
2018-01-24T13:49:06.302Z,14.30
2018-01-24T13:51:33.817Z,14.20
2018-01-24T13:54:01.314Z,14.30
2018-01-24T13:56:28.829Z,14.30
2018-01-24T13:58:56.333Z,14.30
2018-01-24T14:01:23.852Z,14.40
2018-01-24T14:03:51.383Z,14.40
2018-01-24T14:06:18.913Z,14.40
2018-01-24T14:08:46.413Z,14.50
2018-01-24T14:11:13.933Z,14.50
2018-01-24T14:13:41.453Z,14.50
2018-01-24T14:16:08.962Z,14.50
2018-01-24T14:18:36.458Z,14.50
2018-01-24T14:21:03.966Z,14.50
2018-01-24T14:23:31.521Z,14.50
2018-01-24T14:25:59.053Z,14.50
2018-01-24T14:28:26.549Z,14.50
2018-01-24T14:30:54.086Z,14.50
2018-01-24T14:33:21.610Z,14.40
2018-01-24T14:35:49.158Z,14.50
2018-01-24T14:38:16.657Z,14.50
2018-01-24T14:40:44.224Z,14.40
2018-01-24T14:43:11.771Z,14.40
2018-01-24T14:45:39.300Z,14.40
2018-01-24T14:48:07.697Z,14.40
2018-01-24T14:50:35.213Z,14.40
2018-01-24T14:53:02.742Z,14.40
2018-01-24T14:55:30.270Z,14.30
2018-01-24T14:57:57.786Z,14.30
2018-01-24T15:00:26.065Z,14.20
2018-01-24T15:02:53.581Z,14.20
2018-01-24T15:05:21.117Z,14.20
2018-01-24T15:07:48.632Z,14.20
2018-01-24T15:10:16.161Z,14.10
2018-01-24T15:12:43.675Z,14.10
2018-01-24T15:15:11.972Z,14.00
2018-01-24T15:17:39.487Z,14.00
2018-01-24T15:20:07.009Z,13.90
2018-01-24T15:22:34.528Z,13.90
2018-01-24T15:25:02.817Z,13.80
2018-01-24T15:27:31.108Z,13.70
2018-01-24T15:29:58.618Z,13.70
2018-01-24T15:32:26.154Z,13.60
2018-01-24T15:34:53.659Z,13.60
2018-01-24T15:37:21.944Z,13.40
2018-01-24T15:39:50.214Z,13.30
2018-01-24T15:42:18.501Z,13.30
2018-01-24T15:44:45.996Z,13.20
2018-01-24T15:47:13.546Z,13.20
2018-01-24T15:49:41.041Z,13.10
2018-01-24T15:52:08.589Z,13.00
2018-01-24T15:54:36.125Z,12.90
2018-01-24T15:57:03.638Z,12.80
2018-01-24T15:59:31.932Z,12.60
2018-01-24T16:02:00.206Z,12.50
2018-01-24T16:04:28.498Z,12.40
2018-01-24T16:06:55.993Z,12.40
2018-01-24T16:09:23.508Z,12.30
2018-01-24T16:11:51.793Z,12.20
2018-01-24T16:14:19.324Z,12.10
2018-01-24T16:16:46.825Z,12.10
2018-01-24T16:19:14.342Z,12.00
2018-01-24T16:21:41.844Z,11.90
2018-01-24T16:24:09.385Z,11.80
2018-01-24T16:26:37.646Z,11.70
2018-01-24T16:29:05.960Z,11.60
2018-01-24T16:31:33.495Z,11.60
2018-01-24T16:34:01.887Z,11.40
2018-01-24T16:36:29.381Z,11.40
2018-01-24T16:38:56.918Z,11.30
2018-01-24T16:41:24.482Z,11.20
2018-01-24T16:43:52.014Z,11.10
2018-01-24T16:46:19.521Z,11.10
2018-01-24T16:48:47.050Z,11.00
2018-01-24T16:51:14.573Z,10.90
2018-01-24T16:53:42.855Z,10.80
2018-01-24T16:56:11.177Z,10.70
2018-01-24T16:58:38.688Z,10.70
2018-01-24T17:01:06.287Z,10.70
2018-01-24T17:03:33.784Z,10.60
2018-01-24T17:06:01.465Z,10.50
2018-01-24T17:08:28.958Z,10.50
2018-01-24T17:10:56.581Z,10.40
2018-01-24T17:13:24.090Z,10.30
2018-01-24T17:15:51.629Z,10.30
2018-01-24T17:18:19.165Z,10.20
2018-01-24T17:20:47.527Z,10.10
2018-01-24T17:23:15.039Z,10.10
2018-01-24T17:25:42.685Z,10.10
2018-01-24T17:28:10.990Z,9.90
2018-01-24T17:30:38.522Z,9.90
2018-01-24T17:33:06.820Z,9.80
2018-01-24T17:35:36.753Z,9.80
2018-01-24T17:38:05.030Z,9.70
2018-01-24T17:40:32.553Z,9.70
2018-01-24T17:43:00.892Z,9.60
2018-01-24T17:45:28.421Z,9.60
2018-01-24T17:47:55.921Z,9.60
2018-01-24T17:50:23.437Z,9.50
2018-01-24T17:52:50.954Z,9.50
2018-01-24T17:55:22.394Z,9.40
2018-01-24T17:57:49.941Z,9.40
2018-01-24T18:00:17.469Z,9.40
2018-01-24T18:02:44.981Z,9.40
2018-01-24T18:05:13.286Z,9.30
2018-01-24T18:07:40.870Z,9.30
2018-01-24T18:10:08.394Z,9.20
2018-01-24T18:12:36.751Z,9.20
2018-01-24T18:15:04.266Z,9.10
2018-01-24T18:17:31.781Z,9.10
2018-01-24T18:20:00.110Z,9.00
2018-01-24T18:22:27.633Z,9.00
2018-01-24T18:24:55.196Z,9.00
2018-01-24T18:27:22.785Z,9.00
2018-01-24T18:29:50.345Z,8.90
2018-01-24T18:32:18.690Z,8.90
2018-01-24T18:34:46.267Z,8.90
2018-01-24T18:37:13.862Z,8.80
2018-01-24T18:39:41.369Z,8.80
2018-01-24T18:42:09.732Z,8.70
2018-01-24T18:44:38.051Z,8.70
2018-01-24T18:47:05.645Z,8.70
2018-01-24T18:49:33.185Z,8.70
2018-01-24T18:52:00.835Z,8.60
2018-01-24T18:54:28.333Z,8.60
2018-01-24T18:56:55.951Z,8.60
2018-01-24T18:59:23.454Z,8.50
2018-01-24T19:01:50.971Z,8.50
2018-01-24T19:04:18.462Z,8.50
2018-01-24T19:06:46.833Z,8.50
2018-01-24T19:09:14.358Z,8.00
2018-01-24T19:11:41.922Z,8.50
2018-01-24T19:14:09.439Z,8.50
2018-01-24T19:16:36.974Z,8.40
2018-01-24T19:19:04.544Z,8.40
2018-01-24T19:21:32.065Z,8.40
2018-01-24T19:23:59.625Z,8.40
2018-01-24T19:26:27.134Z,8.30
2018-01-24T19:28:54.692Z,8.30
2018-01-24T19:31:22.211Z,8.30
2018-01-24T19:33:49.710Z,8.20
2018-01-24T19:36:17.222Z,8.20
2018-01-24T19:38:44.725Z,8.20
2018-01-24T19:41:13.067Z,8.10
2018-01-24T19:43:40.667Z,8.20
2018-01-24T19:46:08.200Z,8.00
2018-01-24T19:48:35.770Z,8.00
2018-01-24T19:51:03.363Z,8.00
2018-01-24T19:53:31.663Z,7.90
2018-01-24T19:55:59.220Z,7.90
2018-01-24T19:58:26.796Z,7.90
2018-01-24T20:00:54.349Z,7.80
2018-01-24T20:03:21.912Z,7.80
2018-01-24T20:05:49.440Z,7.80
2018-01-24T20:08:17.701Z,7.70
2018-01-24T20:10:45.249Z,7.70
2018-01-24T20:13:12.797Z,7.60
2018-01-24T20:15:40.313Z,7.60
2018-01-24T20:18:07.889Z,7.60
2018-01-24T20:20:35.448Z,7.50
2018-01-24T20:23:03.024Z,7.50
2018-01-24T20:25:30.527Z,7.50
2018-01-24T20:27:58.094Z,7.50
2018-01-24T20:30:26.377Z,7.40
2018-01-24T20:32:54.729Z,7.40
2018-01-24T20:35:22.225Z,7.40
2018-01-24T20:37:50.506Z,7.40
2018-01-24T20:40:18.018Z,7.40
2018-01-24T20:42:45.550Z,7.40
2018-01-24T20:45:13.876Z,7.40
2018-01-24T20:47:42.158Z,7.40
2018-01-24T20:50:10.486Z,7.40
2018-01-24T20:52:38.006Z,7.40
2018-01-24T20:55:05.582Z,7.40
2018-01-24T20:57:33.996Z,7.40
2018-01-24T21:00:01.514Z,7.40
2018-01-24T21:02:29.844Z,7.40
2018-01-24T21:04:57.347Z,7.30
2018-01-24T21:07:25.628Z,7.40
2018-01-24T21:09:53.149Z,7.40
2018-01-24T21:12:20.699Z,7.40
2018-01-24T21:14:48.252Z,7.40
2018-01-24T21:17:16.529Z,7.40
2018-01-24T21:19:44.035Z,7.40
2018-01-24T21:22:12.313Z,7.40
2018-01-24T21:24:40.592Z,7.40
2018-01-24T21:27:08.878Z,7.40
2018-01-24T21:29:53.070Z,7.40
2018-01-24T21:35:38.232Z,7.30
2018-01-24T21:38:05.821Z,7.30
2018-01-24T21:40:33.335Z,7.20
2018-01-24T21:43:00.874Z,7.20
2018-01-24T21:45:28.391Z,7.20
2018-01-24T21:47:55.947Z,7.20
2018-01-24T21:50:23.493Z,7.20
2018-01-24T21:52:51.006Z,7.20
2018-01-24T21:55:18.501Z,7.20
2018-01-24T21:57:46.023Z,7.20
2018-01-24T22:00:13.592Z,7.20
2018-01-24T22:02:41.106Z,7.20
2018-01-24T22:05:08.618Z,7.10
2018-01-24T22:07:36.894Z,7.10
2018-01-24T22:10:05.237Z,7.10
2018-01-24T22:12:32.754Z,7.10
2018-01-24T22:15:00.273Z,7.10
2018-01-24T22:17:27.781Z,7.00
2018-01-24T22:19:55.300Z,7.00
2018-01-24T22:22:23.591Z,6.90
2018-01-24T22:24:51.122Z,6.90
2018-01-24T22:27:18.683Z,6.90
2018-01-24T22:29:46.199Z,6.90
2018-01-24T22:32:14.022Z,6.80
2018-01-24T22:34:42.313Z,6.80
2018-01-24T22:37:10.601Z,6.70
2018-01-24T22:39:38.934Z,6.70
2018-01-24T22:42:07.264Z,6.70
2018-01-24T22:44:34.788Z,6.70
2018-01-24T22:47:03.115Z,6.60
2018-01-24T22:49:30.637Z,6.60
2018-01-24T22:51:58.918Z,6.60
2018-01-24T22:54:27.202Z,6.60
2018-01-24T22:56:55.483Z,6.50
2018-01-24T22:59:22.999Z,6.50
2018-01-24T23:01:50.516Z,6.50
2018-01-24T23:04:18.038Z,6.50
2018-01-24T23:06:46.312Z,6.40
2018-01-24T23:09:14.601Z,6.40
2018-01-24T23:11:42.879Z,6.40
2018-01-24T23:14:11.165Z,6.40
2018-01-24T23:16:39.421Z,6.40
2018-01-24T23:19:06.973Z,6.40
2018-01-24T23:21:34.518Z,6.30
2018-01-24T23:24:02.059Z,6.30
2018-01-24T23:26:29.557Z,6.30
2018-01-24T23:28:57.094Z,6.30
2018-01-24T23:31:24.619Z,6.30
2018-01-24T23:33:52.137Z,6.30
2018-01-24T23:36:19.638Z,6.20
2018-01-24T23:38:47.161Z,6.20
2018-01-24T23:41:15.435Z,6.20
2018-01-24T23:43:43.712Z,6.20
2018-01-24T23:46:11.982Z,6.20
2018-01-24T23:48:39.502Z,6.10
2018-01-24T23:51:07.011Z,6.10
2018-01-24T23:53:35.285Z,6.10
2018-01-24T23:56:03.569Z,6.10
2018-01-24T23:58:31.852Z,6.10
